NFTL/HPA METAR and TAF weather

Enter ICAO airport designator
Station Type Date Time Source
NFTL METAR 2018/12/12 06:00 UTC NOAA

NFTL 120600Z 12005KT 9999 SCT018 26/20 Q1010


Station Type Date Time Source
NFTL Decoded METAR 2018/12/12 06:00 UTC NOAA

Haapai, Tonga (NFTL) 19-48S 174-21W 3M
Dec 12, 2018 - 01:00 AM EST / 2018.12.12 0600 UTC
Wind: from the ESE (120 degrees) at 6 MPH (5 KT):0
Visibility: greater than 7 mile(s):0
Sky conditions: partly cloudy
Temperature: 78 F (26 C)
Dew Point: 68 F (20 C)
Relative Humidity: 69%
Pressure (altimeter): 29.83 in. Hg (1010 hPa)
ob: NFTL 120600Z 12005KT 9999 SCT018 26/20 Q1010
cycle: 6

Station Type Date Time Source
NFTL TAF 2018/02/21 17:19 UTC NOAA

TAF NFTL 211605Z 2117/2208 12010KT 9999 SCT018


Example: see airport list